Potosi, Wisconsin
Current Conditions -  °F | °C
As of 3:15 AM on Thursday 23 Oct 2014 (Local Time) from KPVB Reporting Station
Clear Clear  
Wind Chill: 37°   Ceiling: Unl
Heat Index: 42°   Visibility: 10mi
Dew Point: 35°   Wind: 7mph
Humidity: 77%   Direction: 130°SE
Pressure: 30.16"   Gusts: NA
Location:  42.69°N, 90.71°W
Report Text: KPVB 230815Z AUTO 13006KT 10SM CLR 06/02 A3016 RMK AO1 T00550018
Loading
Personal Weather Stations






























Interactive Weather Map
Tropical Storm Tracking
New forecast layout! Learn more

10-Day Weather Forecast

Advertisements
Track Severe Weather on mobile